Time;durP1;ratioP1;P1;durP2;ratioP2;P2;SDS_P1;SDS_P2;PMS_P1;PMS_P2;Temp;Humidity;BMP_temperature;BMP_pressure;BME280_temperature;BME280_humidity;BME280_pressure;Samples;Min_cycle;Max_cycle;Signal;HPM_P1;HPM_P2
2023/01/19 00:01:58;;;;;;;8.60;6.60;;;0.40;99.90;;;;;;5032887;28;20202;-56
2023/01/19 00:04:25;;;;;;;11.53;7.07;;;0.50;99.90;;;;;;5032881;28;20202;-56
2023/01/19 00:06:51;;;;;;;11.73;7.53;;;0.40;99.90;;;;;;5033121;28;20697;-56
2023/01/19 00:09:21;;;;;;;9.87;6.20;;;0.40;99.90;;;;;;5034145;28;20262;-56
2023/01/19 00:11:47;;;;;;;8.80;6.10;;;0.40;99.90;;;;;;5033813;28;20210;-55
2023/01/19 00:14:14;;;;;;;15.87;6.63;;;0.40;99.90;;;;;;5032889;28;20217;-56
2023/01/19 00:16:41;;;;;;;10.10;6.10;;;0.40;99.90;;;;;;5033179;28;20202;-56
2023/01/19 00:19:08;;;;;;;11.60;6.40;;;0.40;99.90;;;;;;5032864;28;20226;-57
2023/01/19 00:21:35;;;;;;;10.83;7.00;;;0.40;99.90;;;;;;5032882;28;20214;-55
2023/01/19 00:24:02;;;;;;;10.97;6.87;;;0.30;99.90;;;;;;5032688;28;20206;-55
2023/01/19 00:26:30;;;;;;;11.03;6.30;;;0.40;99.90;;;;;;5033125;28;20214;-56
2023/01/19 00:28:56;;;;;;;12.07;7.13;;;0.40;99.90;;;;;;5032618;28;20253;-55
2023/01/19 00:31:23;;;;;;;9.37;6.70;;;0.40;99.90;;;;;;5032834;28;20202;-55
2023/01/19 00:33:51;;;;;;;9.20;6.73;;;0.50;99.90;;;;;;5032832;28;20297;-54
2023/01/19 00:36:18;;;;;;;11.83;6.83;;;0.50;99.90;;;;;;5033742;28;20217;-54
2023/01/19 00:38:45;;;;;;;9.73;6.37;;;0.60;99.90;;;;;;5032867;28;20261;-54
2023/01/19 00:41:11;;;;;;;10.43;6.97;;;0.60;99.90;;;;;;5034139;28;20256;-55
2023/01/19 00:43:38;;;;;;;13.60;7.10;;;0.60;99.90;;;;;;5032728;28;20209;-54
2023/01/19 00:46:05;;;;;;;8.23;6.40;;;0.60;99.90;;;;;;5032688;28;20305;-55
2023/01/19 00:48:32;;;;;;;10.50;7.47;;;0.60;99.90;;;;;;5032305;28;20246;-55
2023/01/19 00:50:59;;;;;;;11.37;6.90;;;0.70;99.90;;;;;;5033082;28;20600;-56
2023/01/19 00:53:31;;;;;;;8.53;6.50;;;0.80;99.90;;;;;;5032189;28;20249;-55
2023/01/19 00:55:57;;;;;;;13.90;6.73;;;0.80;99.90;;;;;;5032379;28;20205;-55
2023/01/19 00:58:24;;;;;;;9.37;6.97;;;0.90;99.90;;;;;;5033008;28;20237;-55
2023/01/19 01:00:56;;;;;;;12.40;6.70;;;1.10;99.90;;;;;;5032422;28;20253;-56
2023/01/19 01:03:26;;;;;;;13.20;6.97;;;1.20;99.90;;;;;;5032324;28;20206;-55
2023/01/19 01:05:53;;;;;;;11.37;6.83;;;1.30;99.90;;;;;;5032699;28;20238;-56
2023/01/19 01:08:20;;;;;;;9.23;6.80;;;1.30;99.90;;;;;;5032273;28;20230;-55
2023/01/19 01:10:46;;;;;;;9.50;6.10;;;1.40;99.90;;;;;;5033449;28;20199;-56
2023/01/19 01:13:13;;;;;;;8.20;6.43;;;1.30;99.90;;;;;;5032422;28;20206;-55
2023/01/19 01:15:40;;;;;;;10.70;6.90;;;1.40;99.90;;;;;;5032900;28;20218;-54
2023/01/19 01:18:08;;;;;;;10.23;7.00;;;1.50;99.90;;;;;;5032513;28;20229;-55
2023/01/19 01:20:36;;;;;;;7.53;6.33;;;1.40;99.90;;;;;;5032289;28;20225;-55
2023/01/19 01:23:03;;;;;;;9.67;6.63;;;1.40;99.90;;;;;;5031980;28;20663;-55
2023/01/19 01:25:32;;;;;;;9.13;6.23;;;1.40;99.90;;;;;;5032120;28;20690;-56
2023/01/19 01:27:59;;;;;;;9.80;6.53;;;1.50;99.90;;;;;;5032262;28;20299;-56
2023/01/19 01:30:26;;;;;;;7.90;5.53;;;1.60;99.90;;;;;;5032449;28;20203;-56
2023/01/19 01:32:52;;;;;;;10.20;6.73;;;1.70;99.90;;;;;;5032063;28;20570;-56
2023/01/19 01:35:20;;;;;;;8.40;6.37;;;1.70;99.90;;;;;;5032403;28;20210;-56
2023/01/19 01:37:47;;;;;;;8.83;6.20;;;1.70;99.90;;;;;;5032148;28;20213;-56
2023/01/19 01:40:17;;;;;;;8.60;5.90;;;1.80;99.90;;;;;;5036157;28;20258;-56
2023/01/19 01:42:45;;;;;;;12.20;6.53;;;1.60;99.90;;;;;;5036140;28;20628;-56
2023/01/19 01:45:30;;;;;;;8.77;6.30;;;1.60;99.90;;;;;;5035995;28;20210;-56
2023/01/19 01:48:01;;;;;;;11.53;6.60;;;1.40;99.90;;;;;;5036369;28;20234;-55
2023/01/19 01:50:32;;;;;;;9.50;6.03;;;1.30;99.90;;;;;;5035650;28;20667;-55
2023/01/19 01:53:09;;;;;;;7.90;5.97;;;1.20;99.90;;;;;;5035128;28;20705;-55
2023/01/19 01:55:39;;;;;;;9.60;6.30;;;1.20;99.90;;;;;;5035453;28;20202;-55
2023/01/19 01:58:09;;;;;;;9.70;6.03;;;1.10;99.90;;;;;;5035104;28;20304;-55
2023/01/19 02:03:18;;;;;;;9.70;6.13;;;1.00;99.90;;;;;;5033907;28;20671;-55
2023/01/19 02:05:46;;;;;;;8.50;5.73;;;1.00;99.90;;;;;;5035118;28;20206;-55
2023/01/19 02:13:48;;;;;;;7.73;5.63;;;0.80;99.90;;;;;;5034806;28;20593;-55
2023/01/19 02:16:16;;;;;;;9.20;6.30;;;0.80;99.90;;;;;;5035034;28;20203;-56
2023/01/19 02:18:44;;;;;;;7.20;5.93;;;0.80;99.90;;;;;;5034803;28;20249;-55
2023/01/19 02:21:18;;;;;;;8.17;6.20;;;0.80;99.90;;;;;;5034684;28;20631;-55
2023/01/19 02:23:49;;;;;;;9.17;5.93;;;0.90;99.90;;;;;;5034565;28;20257;-56
2023/01/19 02:26:19;;;;;;;8.53;6.47;;;1.00;99.90;;;;;;5034683;28;20210;-56
2023/01/19 02:28:49;;;;;;;9.77;6.07;;;1.10;99.90;;;;;;5034780;28;20222;-55
2023/01/19 02:31:16;;;;;;;8.10;5.83;;;1.20;99.90;;;;;;5034679;28;20210;-56
2023/01/19 02:33:43;;;;;;;9.17;6.33;;;1.10;99.90;;;;;;5034395;28;20217;-56
2023/01/19 02:36:13;;;;;;;9.77;6.30;;;1.10;99.90;;;;;;5034567;28;20213;-55
2023/01/19 02:38:41;;;;;;;8.47;5.70;;;1.10;99.90;;;;;;5034439;28;20513;-55
2023/01/19 02:41:14;;;;;;;8.90;5.73;;;1.00;99.90;;;;;;5034539;28;20229;-55
2023/01/19 02:43:42;;;;;;;8.80;6.40;;;0.90;99.90;;;;;;5034334;28;20214;-55
2023/01/19 02:46:09;;;;;;;8.10;5.90;;;0.80;99.90;;;;;;5034344;28;20736;-56
2023/01/19 02:48:36;;;;;;;7.87;5.60;;;0.60;99.90;;;;;;5034070;28;20230;-55
2023/01/19 02:51:08;;;;;;;8.10;5.87;;;0.50;99.90;;;;;;5033768;28;20202;-55
2023/01/19 02:53:49;;;;;;;8.97;5.67;;;0.40;99.90;;;;;;5034069;28;20206;-56
2023/01/19 02:56:39;;;;;;;7.80;5.70;;;0.40;99.90;;;;;;5034084;28;20674;-55
2023/01/19 02:59:14;;;;;;;9.37;6.27;;;0.40;99.90;;;;;;5031139;28;20230;-56
2023/01/19 03:01:52;;;;;;;7.60;5.63;;;0.40;99.90;;;;;;5034277;28;20249;-55
2023/01/19 03:04:28;;;;;;;7.60;5.93;;;0.30;99.90;;;;;;5034118;28;20206;-55
2023/01/19 03:07:01;;;;;;;8.77;6.07;;;0.30;99.90;;;;;;5034113;28;20210;-56
2023/01/19 03:09:32;;;;;;;9.07;6.20;;;0.30;99.90;;;;;;5034248;28;20223;-55
2023/01/19 03:12:09;;;;;;;7.50;5.60;;;0.20;99.90;;;;;;5034108;28;20206;-55
2023/01/19 03:14:41;;;;;;;7.47;5.60;;;0.20;99.90;;;;;;5034027;28;20217;-56
2023/01/19 03:17:10;;;;;;;9.33;6.50;;;0.10;99.90;;;;;;5033807;28;20218;-55
2023/01/19 03:19:40;;;;;;;11.83;5.97;;;0.10;99.90;;;;;;5033670;28;20222;-55
2023/01/19 03:22:11;;;;;;;14.87;5.97;;;0.10;99.90;;;;;;5033431;28;20639;-55
2023/01/19 03:24:42;;;;;;;8.67;6.13;;;0.00;99.90;;;;;;5033873;28;20276;-55
2023/01/19 03:27:13;;;;;;;9.20;6.00;;;0.10;99.90;;;;;;5033578;28;20690;-54
2023/01/19 03:29:43;;;;;;;8.87;6.40;;;0.10;99.90;;;;;;5033645;28;20230;-55
2023/01/19 03:32:15;;;;;;;8.07;6.43;;;0.10;99.90;;;;;;5033350;28;20670;-55
2023/01/19 03:34:44;;;;;;;8.97;5.90;;;0.10;99.90;;;;;;5033268;28;20213;-55
2023/01/19 03:37:13;;;;;;;10.83;6.53;;;0.10;99.90;;;;;;5033332;28;20560;-55
2023/01/19 03:39:40;;;;;;;9.53;5.77;;;0.10;99.90;;;;;;5033175;28;20317;-55
2023/01/19 03:42:13;;;;;;;8.87;6.30;;;0.00;99.90;;;;;;5033237;28;20303;-55
2023/01/19 03:44:42;;;;;;;8.53;5.60;;;-0.20;99.90;;;;;;5033576;28;20210;-55
2023/01/19 03:47:11;;;;;;;11.17;6.87;;;-0.20;99.90;;;;;;5033396;28;20236;-55
2023/01/19 03:49:41;;;;;;;7.97;5.60;;;-0.10;99.90;;;;;;5033028;28;20721;-55
2023/01/19 03:52:08;;;;;;;8.93;6.60;;;-0.10;99.90;;;;;;5033399;28;20202;-55
2023/01/19 03:54:35;;;;;;;9.07;6.30;;;-0.10;99.90;;;;;;5032884;28;20202;-55
2023/01/19 03:57:02;;;;;;;8.80;6.13;;;-0.10;99.90;;;;;;5033058;28;20218;-56
2023/01/19 03:59:30;;;;;;;8.90;6.40;;;-0.10;99.90;;;;;;5032893;28;20234;-55
2023/01/19 04:01:56;;;;;;;9.03;5.97;;;-0.20;99.90;;;;;;5032693;28;20237;-55
2023/01/19 04:04:24;;;;;;;14.53;9.20;;;-0.20;99.90;;;;;;5032945;28;20206;-55
2023/01/19 04:06:51;;;;;;;11.17;6.30;;;-0.30;99.90;;;;;;5033189;28;20208;-55
2023/01/19 04:09:17;;;;;;;11.63;7.27;;;-0.20;99.90;;;;;;5033009;28;20237;-55
2023/01/19 04:11:44;;;;;;;18.53;9.17;;;-0.30;99.90;;;;;;5033372;28;20206;-55
2023/01/19 04:14:11;;;;;;;8.93;6.50;;;-0.20;99.90;;;;;;5033204;28;20206;-55
2023/01/19 04:16:39;;;;;;;10.60;6.50;;;-0.30;99.90;;;;;;5032986;28;20569;-54
2023/01/19 04:19:05;;;;;;;8.60;5.80;;;-0.40;99.90;;;;;;5032840;28;20237;-55
2023/01/19 04:21:32;;;;;;;7.77;6.30;;;-0.40;99.90;;;;;;5032779;28;20222;-54
2023/01/19 04:23:59;;;;;;;8.83;6.30;;;-0.40;99.90;;;;;;5032227;28;20213;-55
2023/01/19 04:26:27;;;;;;;9.97;6.17;;;-0.50;99.90;;;;;;5032687;28;20686;-56
2023/01/19 04:28:53;;;;;;;9.27;6.30;;;-0.40;99.90;;;;;;5032827;28;20238;-55
2023/01/19 04:31:22;;;;;;;13.07;9.90;;;-0.30;99.90;;;;;;5032794;28;20280;-55
2023/01/19 04:33:50;;;;;;;8.73;6.37;;;-0.30;99.90;;;;;;5032539;28;20691;-54
2023/01/19 04:36:17;;;;;;;9.97;6.00;;;-0.30;99.90;;;;;;5032518;28;20210;-54
2023/01/19 04:38:45;;;;;;;9.80;6.23;;;-0.20;99.90;;;;;;5033051;28;20261;-55
2023/01/19 04:41:12;;;;;;;8.63;6.57;;;-0.30;99.90;;;;;;5033349;28;20229;-55
2023/01/19 04:43:38;;;;;;;8.73;6.70;;;-0.30;99.90;;;;;;5032651;28;20209;-54
2023/01/19 04:46:05;;;;;;;17.50;9.90;;;-0.30;99.90;;;;;;5033139;28;20557;-55
2023/01/19 04:48:32;;;;;;;9.17;6.60;;;-0.20;99.90;;;;;;5032734;28;20238;-54
2023/01/19 04:51:00;;;;;;;10.63;6.87;;;-0.20;99.90;;;;;;5033283;28;20557;-54
2023/01/19 04:53:26;;;;;;;8.07;6.20;;;-0.20;99.90;;;;;;5031783;28;20210;-54
2023/01/19 04:55:54;;;;;;;9.23;6.63;;;-0.10;99.90;;;;;;5031963;28;20325;-55
2023/01/19 04:58:21;;;;;;;11.43;7.13;;;-0.20;99.90;;;;;;5031991;28;20230;-54
2023/01/19 05:00:49;;;;;;;10.40;6.30;;;-0.30;99.90;;;;;;5032010;28;20213;-55
2023/01/19 05:03:18;;;;;;;10.17;6.97;;;-0.30;99.90;;;;;;5031682;28;20742;-54
2023/01/19 05:05:44;;;;;;;12.40;7.97;;;-0.20;99.90;;;;;;5032122;28;20216;-54
2023/01/19 05:08:12;;;;;;;9.67;7.00;;;-0.30;99.90;;;;;;5031867;28;20226;-54
2023/01/19 05:10:39;;;;;;;12.97;8.03;;;-0.30;99.90;;;;;;5032292;28;20642;-55
2023/01/19 05:13:06;;;;;;;9.07;6.80;;;-0.30;99.90;;;;;;5031993;28;20213;-54
2023/01/19 05:15:32;;;;;;;18.77;10.87;;;-0.30;99.90;;;;;;5036189;28;20201;-55
2023/01/19 05:17:59;;;;;;;11.10;7.77;;;-0.20;99.90;;;;;;5035941;28;20240;-55
2023/01/19 05:20:26;;;;;;;16.37;9.93;;;-0.20;99.90;;;;;;5036022;28;20237;-55
2023/01/19 05:22:53;;;;;;;13.63;7.93;;;-0.20;99.90;;;;;;5035628;28;20677;-54
2023/01/19 05:25:21;;;;;;;14.17;8.63;;;-0.20;99.90;;;;;;5036104;28;20214;-54
2023/01/19 05:27:48;;;;;;;12.10;8.43;;;-0.20;99.90;;;;;;5035878;28;20207;-54
2023/01/19 05:30:15;;;;;;;12.70;7.67;;;-0.20;99.90;;;;;;5036194;28;20210;-54
2023/01/19 05:32:42;;;;;;;8.97;6.53;;;-0.20;99.90;;;;;;5035445;28;20582;-55
2023/01/19 05:35:09;;;;;;;12.13;7.03;;;-0.20;99.90;;;;;;5035843;28;20294;-54
2023/01/19 05:37:36;;;;;;;11.70;7.53;;;-0.20;99.90;;;;;;5035255;28;20214;-54
2023/01/19 05:40:04;;;;;;;25.17;14.97;;;-0.20;99.90;;;;;;5035620;28;20210;-54
2023/01/19 05:42:32;;;;;;;11.83;8.67;;;-0.20;99.90;;;;;;5036101;28;20226;-55
2023/01/19 05:44:59;;;;;;;10.20;7.20;;;-0.20;99.90;;;;;;5035391;28;20639;-54
2023/01/19 05:47:26;;;;;;;9.37;6.70;;;-0.20;99.90;;;;;;5035269;28;20217;-55
2023/01/19 05:49:52;;;;;;;12.23;7.30;;;-0.30;99.90;;;;;;5035393;28;20606;-55
2023/01/19 05:52:20;;;;;;;14.97;7.60;;;-0.30;99.90;;;;;;5035304;28;20297;-54
2023/01/19 05:54:47;;;;;;;12.77;8.53;;;-0.40;99.90;;;;;;5034862;28;20220;-55
2023/01/19 05:57:14;;;;;;;10.53;7.20;;;-0.40;99.90;;;;;;5035075;28;20206;-55
2023/01/19 05:59:42;;;;;;;10.57;6.83;;;-0.40;99.90;;;;;;5034812;28;20226;-54
2023/01/19 06:02:09;;;;;;;8.53;6.80;;;-0.40;99.90;;;;;;5034843;28;20229;-56
2023/01/19 06:04:35;;;;;;;12.23;6.87;;;-0.40;99.90;;;;;;5034623;28;20209;-55
2023/01/19 06:07:02;;;;;;;10.93;6.50;;;-0.40;99.90;;;;;;5035109;28;20211;-55
2023/01/19 06:09:29;;;;;;;10.87;7.50;;;-0.30;99.90;;;;;;5034953;28;20285;-56
2023/01/19 06:11:58;;;;;;;9.53;6.90;;;-0.20;99.90;;;;;;5035176;28;20206;-55
2023/01/19 06:14:25;;;;;;;8.67;6.53;;;-0.10;99.90;;;;;;5034652;28;20671;-55
2023/01/19 06:16:53;;;;;;;9.67;7.30;;;-0.10;99.90;;;;;;5034630;28;20210;-55
2023/01/19 06:19:19;;;;;;;10.40;7.50;;;-0.10;99.90;;;;;;5035093;28;20237;-55
2023/01/19 06:21:50;;;;;;;9.00;6.87;;;0.00;99.90;;;;;;5034964;28;20230;-55
2023/01/19 06:24:17;;;;;;;9.37;6.77;;;0.00;99.90;;;;;;5034611;28;20377;-55
2023/01/19 06:26:44;;;;;;;9.83;7.03;;;-0.10;99.90;;;;;;5034135;28;20217;-55
2023/01/19 06:29:11;;;;;;;9.20;7.03;;;-0.10;99.90;;;;;;5035051;28;20222;-55
2023/01/19 06:31:38;;;;;;;11.13;7.07;;;-0.10;99.90;;;;;;5034892;28;20198;-55
2023/01/19 06:34:06;;;;;;;11.37;7.47;;;-0.20;99.90;;;;;;5034983;28;20649;-55
2023/01/19 06:36:32;;;;;;;11.93;7.60;;;-0.20;99.90;;;;;;5034759;28;20205;-55
2023/01/19 06:39:02;;;;;;;13.00;8.03;;;-0.30;99.90;;;;;;5034339;28;20223;-55
2023/01/19 06:41:29;;;;;;;11.07;7.57;;;-0.30;99.90;;;;;;5034453;28;20256;-55
2023/01/19 06:43:56;;;;;;;9.97;7.43;;;-0.40;99.90;;;;;;5034032;28;20244;-55
2023/01/19 06:46:22;;;;;;;11.63;7.80;;;-0.40;99.90;;;;;;5034769;28;20211;-55
2023/01/19 06:48:49;;;;;;;10.23;7.60;;;-0.40;99.90;;;;;;5034949;28;20230;-55
2023/01/19 06:51:17;;;;;;;9.97;8.10;;;-0.40;99.90;;;;;;5035342;28;20210;-56
2023/01/19 06:53:44;;;;;;;12.00;8.00;;;-0.40;99.90;;;;;;5035212;28;20221;-56
2023/01/19 06:56:11;;;;;;;14.83;9.43;;;-0.50;99.90;;;;;;5034258;28;20578;-55
2023/01/19 06:58:38;;;;;;;13.37;8.73;;;-0.60;99.90;;;;;;5034021;28;20269;-55
2023/01/19 07:01:06;;;;;;;18.93;9.47;;;-0.60;99.90;;;;;;5034564;28;20684;-55
2023/01/19 07:03:34;;;;;;;18.33;11.90;;;-0.70;99.90;;;;;;5033967;28;20213;-55
2023/01/19 07:06:01;;;;;;;17.63;10.10;;;-0.70;99.90;;;;;;5034256;28;20214;-55
2023/01/19 07:08:30;;;;;;;15.93;10.30;;;-0.70;99.90;;;;;;5034463;28;20705;-55
2023/01/19 07:11:00;;;;;;;14.17;8.90;;;-0.60;99.90;;;;;;5034058;28;20210;-55
2023/01/19 07:13:27;;;;;;;12.63;8.53;;;-0.50;99.90;;;;;;5033633;28;20635;-55
2023/01/19 07:15:54;;;;;;;11.70;8.17;;;-0.40;99.90;;;;;;5033606;28;20210;-56
2023/01/19 07:18:21;;;;;;;13.83;8.40;;;-0.30;99.90;;;;;;5033828;28;20230;-55
2023/01/19 07:20:48;;;;;;;12.50;8.47;;;-0.40;99.90;;;;;;5033956;28;20216;-55
2023/01/19 07:23:14;;;;;;;12.83;8.70;;;-0.50;99.90;;;;;;5034023;28;20266;-55
2023/01/19 07:25:45;;;;;;;11.60;8.27;;;-0.70;99.90;;;;;;5033763;28;20297;-56
2023/01/19 07:28:14;;;;;;;11.17;7.70;;;-0.70;99.90;;;;;;5033922;28;20230;-55
2023/01/19 07:30:41;;;;;;;9.93;7.77;;;-0.90;99.90;;;;;;5034208;28;20213;-55
2023/01/19 07:33:08;;;;;;;9.10;7.30;;;-0.90;99.90;;;;;;5033693;28;20205;-55
2023/01/19 07:35:34;;;;;;;12.57;8.00;;;-0.90;99.90;;;;;;5033627;28;20601;-55
2023/01/19 07:38:01;;;;;;;13.60;8.20;;;-1.10;99.90;;;;;;5032198;28;20226;-56
2023/01/19 07:40:28;;;;;;;10.63;7.63;;;-1.40;99.90;;;;;;5034019;28;20542;-55
2023/01/19 07:42:56;;;;;;;10.93;7.90;;;-1.50;99.90;;;;;;5033201;28;20226;-55
2023/01/19 07:45:23;;;;;;;13.37;8.90;;;-1.50;99.90;;;;;;5033608;28;20210;-55
2023/01/19 07:47:50;;;;;;;11.23;8.33;;;-1.40;99.90;;;;;;5033867;28;20233;-56
2023/01/19 07:50:20;;;;;;;11.90;8.13;;;-1.40;99.90;;;;;;5033404;28;20302;-56
2023/01/19 07:52:49;;;;;;;12.27;8.23;;;-1.40;99.90;;;;;;5033648;28;20202;-56
2023/01/19 07:55:16;;;;;;;13.17;7.80;;;-1.30;99.90;;;;;;5033757;28;20206;-56
2023/01/19 07:57:43;;;;;;;12.97;7.63;;;-1.30;99.90;;;;;;5033613;28;20217;-56
2023/01/19 08:00:13;;;;;;;12.40;7.60;;;-1.40;99.90;;;;;;5033519;28;20213;-55
2023/01/19 08:02:40;;;;;;;11.73;7.50;;;-1.50;99.90;;;;;;5033091;28;20691;-55
2023/01/19 08:05:07;;;;;;;11.07;8.10;;;-1.60;99.90;;;;;;5033069;28;20217;-56
2023/01/19 08:07:34;;;;;;;13.57;8.20;;;-1.70;99.90;;;;;;5033018;28;20213;-55
2023/01/19 08:10:01;;;;;;;11.13;7.47;;;-1.60;99.90;;;;;;5033689;28;20233;-55
2023/01/19 08:12:28;;;;;;;10.93;7.03;;;-1.40;99.90;;;;;;5033520;28;20230;-56
2023/01/19 08:14:55;;;;;;;11.00;7.20;;;-1.20;99.90;;;;;;5033262;28;20214;-56
2023/01/19 08:17:23;;;;;;;11.47;7.83;;;-1.10;99.90;;;;;;5033259;28;20276;-56
2023/01/19 08:19:50;;;;;;;10.37;7.47;;;-1.00;99.90;;;;;;5032761;28;20226;-55
2023/01/19 08:22:17;;;;;;;11.43;8.10;;;-0.90;99.90;;;;;;5033278;28;20230;-55
2023/01/19 08:24:44;;;;;;;12.50;8.30;;;-0.60;99.90;;;;;;5032768;28;20210;-55
2023/01/19 08:27:11;;;;;;;10.20;7.50;;;-0.30;99.90;;;;;;5033187;28;20214;-55
2023/01/19 08:29:37;;;;;;;12.27;7.60;;;0.00;99.90;;;;;;5032975;28;20622;-56
2023/01/19 08:32:05;;;;;;;10.13;8.10;;;0.20;99.90;;;;;;5032994;28;20209;-55
2023/01/19 08:34:33;;;;;;;11.87;7.77;;;0.20;99.90;;;;;;5032535;28;20678;-55
2023/01/19 08:37:00;;;;;;;13.50;8.50;;;0.30;99.90;;;;;;5032968;28;20206;-55
2023/01/19 08:39:27;;;;;;;17.83;10.87;;;0.50;99.90;;;;;;5032636;28;20236;-55
2023/01/19 08:41:54;;;;;;;18.00;11.40;;;0.80;99.90;;;;;;5032852;28;20210;-55
2023/01/19 08:44:21;;;;;;;17.63;11.83;;;0.90;99.90;;;;;;5032576;28;20208;-55
2023/01/19 08:46:48;;;;;;;15.67;10.57;;;1.00;99.90;;;;;;5032953;28;20213;-55
2023/01/19 08:49:16;;;;;;;26.43;16.40;;;1.40;99.90;;;;;;5032415;28;20270;-56
2023/01/19 08:51:46;;;;;;;9.27;6.70;;;1.70;99.90;;;;;;5033093;28;20301;-55
2023/01/19 08:54:14;;;;;;;8.43;6.63;;;2.10;99.90;;;;;;5033161;28;20210;-55
2023/01/19 08:56:41;;;;;;;6.97;5.37;;;2.50;99.90;;;;;;5033384;28;20305;-55
2023/01/19 08:59:08;;;;;;;8.70;5.23;;;2.70;99.90;;;;;;5033363;28;20230;-55
2023/01/19 09:01:35;;;;;;;8.60;5.80;;;3.00;99.90;;;;;;5033395;28;20302;-55
2023/01/19 09:04:02;;;;;;;7.73;4.90;;;3.30;99.90;;;;;;5033148;28;20236;-56
2023/01/19 09:06:29;;;;;;;4.77;4.27;;;3.50;99.90;;;;;;5033363;28;20221;-56
2023/01/19 09:08:57;;;;;;;8.37;5.30;;;3.70;99.90;;;;;;5033757;28;20245;-56
2023/01/19 09:11:24;;;;;;;5.47;4.50;;;3.80;99.90;;;;;;5033499;28;20267;-55
2023/01/19 09:13:51;;;;;;;5.50;4.50;;;3.90;99.90;;;;;;5033355;28;20202;-56
2023/01/19 09:16:17;;;;;;;7.33;4.27;;;3.80;99.90;;;;;;5033552;28;20206;-55
2023/01/19 09:18:44;;;;;;;7.07;5.27;;;3.80;99.90;;;;;;5033342;28;20230;-55
2023/01/19 09:21:12;;;;;;;6.33;4.83;;;3.90;99.90;;;;;;5033372;28;20663;-55
2023/01/19 09:23:39;;;;;;;9.17;4.80;;;4.10;99.90;;;;;;5033285;28;20603;-55
2023/01/19 09:26:07;;;;;;;9.30;4.40;;;4.20;99.90;;;;;;5033607;28;20575;-55
2023/01/19 09:28:35;;;;;;;5.80;4.80;;;4.30;99.90;;;;;;5034207;28;20321;-55
2023/01/19 09:31:05;;;;;;;7.97;4.40;;;4.40;99.90;;;;;;5033799;28;20206;-62
2023/01/19 09:33:32;;;;;;;6.93;4.77;;;4.40;99.90;;;;;;5030329;28;20206;-54
2023/01/19 09:36:00;;;;;;;8.10;4.57;;;4.50;99.90;;;;;;5031126;28;20210;-55
2023/01/19 09:38:30;;;;;;;8.33;4.37;;;4.50;99.90;;;;;;5031514;28;20241;-54
2023/01/19 09:40:57;;;;;;;5.70;4.00;;;4.40;99.90;;;;;;5031353;28;20206;-55
2023/01/19 09:43:35;;;;;;;5.87;4.00;;;4.60;99.90;;;;;;5030983;28;20276;-54
2023/01/19 09:46:05;;;;;;;7.53;4.30;;;4.80;99.90;;;;;;5031352;28;20260;-54
2023/01/19 09:48:42;;;;;;;7.20;4.43;;;5.00;99.90;;;;;;5031541;28;20236;-54
2023/01/19 09:51:14;;;;;;;5.87;4.50;;;5.10;99.90;;;;;;5031555;28;20221;-54
2023/01/19 09:53:50;;;;;;;5.80;4.00;;;5.30;99.90;;;;;;5030544;28;20202;-54
2023/01/19 09:56:19;;;;;;;5.57;4.10;;;5.30;99.90;;;;;;5031062;28;20214;-54
2023/01/19 09:58:49;;;;;;;5.47;3.97;;;5.40;99.90;;;;;;5031206;28;20729;-54
2023/01/19 10:01:37;;;;;;;7.33;4.43;;;5.40;99.90;;;;;;5032896;28;20202;-54
2023/01/19 10:04:34;;;;;;;5.87;4.10;;;5.40;99.90;;;;;;5025221;28;20237;-55
2023/01/19 10:07:11;;;;;;;4.87;4.03;;;5.50;99.90;;;;;;5034619;28;20209;-54
2023/01/19 10:09:48;;;;;;;6.73;4.57;;;5.60;99.90;;;;;;5034329;28;20241;-59
2023/01/19 10:12:27;;;;;;;4.67;3.90;;;5.60;99.90;;;;;;5034777;28;20301;-59
2023/01/19 10:15:05;;;;;;;6.87;3.93;;;5.50;99.90;;;;;;5034030;28;20202;-57
2023/01/19 10:17:43;;;;;;;5.00;4.10;;;5.40;99.90;;;;;;5033941;28;20252;-58
2023/01/19 10:20:16;;;;;;;5.50;4.47;;;5.40;99.90;;;;;;5034537;28;20229;-58
2023/01/19 10:22:47;;;;;;;6.57;4.47;;;5.50;99.90;;;;;;5035453;28;20218;-58
2023/01/19 10:25:18;;;;;;;7.07;4.57;;;5.70;99.90;;;;;;5034243;28;20238;-57
2023/01/19 10:27:46;;;;;;;5.93;4.47;;;5.80;99.90;;;;;;5034138;28;20297;-54
2023/01/19 10:30:22;;;;;;;5.17;4.00;;;5.90;99.90;;;;;;5034254;28;20274;-54
2023/01/19 10:32:52;;;;;;;7.53;4.30;;;5.90;99.90;;;;;;5034081;28;20233;-54
2023/01/19 10:35:23;;;;;;;5.77;4.10;;;6.00;99.90;;;;;;5034298;28;20675;-54
2023/01/19 10:37:51;;;;;;;7.50;4.47;;;6.10;99.90;;;;;;5034029;28;20210;-53
2023/01/19 10:40:26;;;;;;;7.00;3.53;;;6.00;99.90;;;;;;5033595;28;20382;-53
2023/01/19 10:42:53;;;;;;;6.50;4.27;;;6.00;99.90;;;;;;5033626;28;20218;-53
2023/01/19 10:45:25;;;;;;;6.47;4.07;;;5.90;99.90;;;;;;5033832;28;20206;-53
2023/01/19 10:47:53;;;;;;;5.90;4.20;;;5.90;99.90;;;;;;5033327;28;20238;-54
2023/01/19 10:50:24;;;;;;;5.97;3.83;;;5.80;99.90;;;;;;5033778;28;20218;-54
2023/01/19 10:52:53;;;;;;;7.13;4.40;;;5.80;99.90;;;;;;5033371;28;20210;-54
2023/01/19 10:55:26;;;;;;;5.13;3.67;;;5.90;99.90;;;;;;5033387;28;20210;-54
2023/01/19 10:57:53;;;;;;;6.70;4.03;;;5.80;99.90;;;;;;5033445;28;20234;-54
2023/01/19 11:00:34;;;;;;;7.17;4.03;;;5.70;99.90;;;;;;5033672;28;20233;-54
2023/01/19 11:03:01;;;;;;;6.27;3.33;;;5.70;99.90;;;;;;5033643;28;20266;-54
2023/01/19 11:05:30;;;;;;;7.97;3.83;;;5.50;99.90;;;;;;5032990;28;20237;-54
2023/01/19 11:07:57;;;;;;;5.53;3.70;;;5.60;99.90;;;;;;5033642;28;20230;-53
2023/01/19 11:10:26;;;;;;;5.73;3.53;;;5.60;99.90;;;;;;5033418;28;20245;-54
2023/01/19 11:13:02;;;;;;;6.30;3.77;;;5.80;99.90;;;;;;5033547;28;20214;-54
2023/01/19 11:15:33;;;;;;;8.33;4.20;;;5.90;99.90;;;;;;5033043;28;20210;-54
2023/01/19 11:18:03;;;;;;;5.23;4.07;;;6.00;99.90;;;;;;5032583;28;20678;-54
2023/01/19 11:20:42;;;;;;;6.90;4.90;;;6.10;99.90;;;;;;5033312;28;20206;-61
2023/01/19 11:23:21;;;;;;;5.90;3.80;;;6.20;99.90;;;;;;5032667;28;20280;-54
2023/01/19 11:25:50;;;;;;;4.67;3.43;;;6.30;99.90;;;;;;5032670;28;20217;-54
2023/01/19 11:28:20;;;;;;;3.77;3.30;;;6.30;99.90;;;;;;5032752;28;20227;-54
2023/01/19 11:30:59;;;;;;;4.80;3.50;;;6.20;99.90;;;;;;5032572;28;20210;-54
2023/01/19 11:33:34;;;;;;;4.17;3.50;;;6.10;99.90;;;;;;5032454;28;20319;-54
2023/01/19 11:36:06;;;;;;;6.37;4.03;;;6.20;99.90;;;;;;5032224;28;20749;-54
2023/01/19 11:38:42;;;;;;;5.07;3.77;;;6.20;99.90;;;;;;5032483;28;20237;-55
2023/01/19 11:41:18;;;;;;;8.00;4.23;;;6.20;99.90;;;;;;5032652;28;20214;-55
2023/01/19 11:43:45;;;;;;;5.87;3.90;;;6.40;99.90;;;;;;5032216;28;20264;-55
2023/01/19 11:46:13;;;;;;;5.77;3.80;;;6.50;99.90;;;;;;5031874;28;20256;-56
2023/01/19 11:48:46;;;;;;;6.87;4.07;;;6.60;99.90;;;;;;5032371;28;20706;-56
2023/01/19 11:51:16;;;;;;;5.57;3.40;;;6.70;99.90;;;;;;5032374;28;20211;-56
2023/01/19 11:53:46;;;;;;;6.27;3.77;;;6.80;99.90;;;;;;5031885;28;20305;-56
2023/01/19 11:56:14;;;;;;;4.53;3.40;;;6.80;99.90;;;;;;5032262;28;20206;-56
2023/01/19 11:58:45;;;;;;;5.27;3.43;;;6.80;99.90;;;;;;5032162;28;20321;-56
2023/01/19 12:01:23;;;;;;;8.17;3.93;;;6.70;99.90;;;;;;5032671;28;20202;-56
2023/01/19 12:03:56;;;;;;;5.63;3.63;;;6.70;99.90;;;;;;5031596;28;20646;-56
2023/01/19 12:06:27;;;;;;;4.23;3.50;;;6.70;99.90;;;;;;5032084;28;20289;-55
2023/01/19 12:08:56;;;;;;;10.40;3.80;;;6.80;99.90;;;;;;5032268;28;20908;-55
2023/01/19 12:11:29;;;;;;;6.50;3.70;;;6.90;99.90;;;;;;5032209;28;20698;-57
2023/01/19 12:13:55;;;;;;;6.63;3.43;;;6.90;99.90;;;;;;5031931;28;20210;-55
2023/01/19 12:16:28;;;;;;;7.13;3.47;;;6.90;99.90;;;;;;5031868;28;20240;-58
2023/01/19 12:18:59;;;;;;;4.20;3.00;;;6.90;99.90;;;;;;5031824;28;20218;-55
2023/01/19 12:21:26;;;;;;;8.07;3.67;;;6.80;99.90;;;;;;5032410;28;20206;-57
2023/01/19 12:24:05;;;;;;;8.23;4.23;;;6.80;99.90;;;;;;5031118;28;20222;-57
2023/01/19 12:26:36;;;;;;;6.03;3.40;;;6.70;99.90;;;;;;5032297;28;20225;-59
2023/01/19 12:29:07;;;;;;;6.73;3.97;;;6.80;99.90;;;;;;5031962;28;20234;-57
2023/01/19 12:31:36;;;;;;;4.70;3.50;;;6.80;99.90;;;;;;5032089;28;20213;-58
2023/01/19 12:34:31;;;;;;;4.83;3.47;;;6.70;99.90;;;;;;5031814;28;20284;-58
2023/01/19 12:37:02;;;;;;;6.37;3.57;;;6.60;99.90;;;;;;5031943;28;20222;-60
2023/01/19 12:39:29;;;;;;;5.63;3.93;;;6.50;99.90;;;;;;5031760;28;20230;-57
2023/01/19 12:42:13;;;;;;;4.60;3.53;;;6.40;99.90;;;;;;5031826;28;20301;-58
2023/01/19 12:44:40;;;;;;;6.93;4.20;;;6.30;99.90;;;;;;5031281;28;20261;-58
2023/01/19 12:47:23;;;;;;;6.33;4.20;;;6.20;99.90;;;;;;5031860;28;20217;-58
2023/01/19 12:49:52;;;;;;;7.00;3.83;;;6.20;99.90;;;;;;5031981;28;20365;-58
2023/01/19 12:52:29;;;;;;;8.57;3.90;;;6.20;99.90;;;;;;5031675;28;20288;-58
2023/01/19 12:55:00;;;;;;;7.97;4.40;;;6.20;99.90;;;;;;5030887;28;20198;-58
2023/01/19 12:57:31;;;;;;;8.03;3.93;;;6.20;99.90;;;;;;5031760;28;20309;-58
2023/01/19 12:59:59;;;;;;;6.27;3.53;;;6.20;99.90;;;;;;5032305;28;20241;-58
2023/01/19 13:02:53;;;;;;;6.13;3.60;;;6.30;99.90;;;;;;5031878;28;20210;-58
2023/01/19 13:05:24;;;;;;;6.60;4.13;;;6.20;99.90;;;;;;5031416;28;20226;-57
2023/01/19 13:08:15;;;;;;;6.43;3.67;;;6.20;99.90;;;;;;5031804;28;20256;-58
2023/01/19 13:11:19;;;;;;;8.93;4.10;;;6.20;99.90;;;;;;5016661;28;20206;-58